»·PEaware :: N7274H L88-KSBP

N7274H :: L88-KSBP

FLIGHT INFORMATION

Flight Status: Arrived
Operator: Privately registered:
United States
More flights under this callsign
Pilot: Ron B. (7893)
Aircraft: CESSNA 172 SKYHAWK
(C172)
More flights by this aircraft type
Origin: L88 New Cuyama
United States
Destination: KSBP San Luis Co Regl
United States
More flights between these airports :: More routes between these airports
Route: DIRECT
File this flight plan on PilotEdge
Remarks: Cat 2 Test
Altitude:
(Current/Filed)
6,500ft
Speed:
(Current/Filed)
120kts
Departed: 07-Aug-18 07:51 AM
Arrived: 07-Aug-18 08:20 AM
Distance/Time
Traveled:
50nm/0:29
Distance/Time
To Go:
Arrived

Flight Plot

Page will automatically refresh every two minutes.


Map Options




Map Legend


Flown Route
Filed Route
Departure Airport
Arrival Airport
Navaid (VOR, NDB)
Fix

Horizontal Profiles

Position Reports

Time Latitude Longitude Heading Altitude Ground
Speed
07-Aug-18 07:33 35.238033 -120.645792 268 215ft 0kts
07-Aug-18 07:34 35.238033 -120.645792 268 215ft 0kts
07-Aug-18 07:35 35.238033 -120.645792 268 215ft 0kts
07-Aug-18 07:36 35.238033 -120.645792 268 215ft 0kts
07-Aug-18 07:37 35.238033 -120.645792 268 215ft 0kts
07-Aug-18 07:38 35.238033 -120.645792 268 215ft 0kts
07-Aug-18 07:39 35.238033 -120.645794 268 215ft 0kts
07-Aug-18 07:40 35.238033 -120.645801 268 215ft 0kts
07-Aug-18 07:41 35.238033 -120.645808 268 215ft 0kts
07-Aug-18 07:42 35.238033 -120.645815 268 215ft 0kts
07-Aug-18 07:43 35.238033 -120.645822 268 215ft 0kts
07-Aug-18 07:44 35.238033 -120.645827 268 215ft 0kts
07-Aug-18 07:45 34.942910 -119.690683 205 2206ft 0kts
07-Aug-18 07:46 34.942906 -119.690686 205 2206ft 0kts
07-Aug-18 07:47 34.942902 -119.690688 205 2206ft 0kts
07-Aug-18 07:48 34.942898 -119.690691 205 2206ft 0kts
07-Aug-18 07:49 34.942865 -119.691000 256 2206ft 4kts
07-Aug-18 07:50 34.941432 -119.689143 119 2206ft 26kts
07-Aug-18 07:51 34.937866 -119.680635 117 2206ft 18kts
07-Aug-18 07:52 34.940011 -119.685735 296 2218ft 73kts
07-Aug-18 07:53 34.947095 -119.714575 294 2921ft 96kts
07-Aug-18 07:54 34.960831 -119.743370 300 3624ft 98kts
07-Aug-18 07:55 34.976032 -119.774426 301 4285ft 114kts
07-Aug-18 07:56 34.987846 -119.806104 300 4968ft 80kts
07-Aug-18 07:57 34.999299 -119.829625 301 5717ft 95kts
07-Aug-18 07:58 35.013483 -119.857384 301 6421ft 94kts
07-Aug-18 07:59 35.030262 -119.890190 301 6498ft 123kts
07-Aug-18 08:00 35.047925 -119.924777 301 6513ft 118kts
07-Aug-18 08:01 35.064704 -119.957472 301 6520ft 106kts
07-Aug-18 08:02 35.080296 -119.987633 301 6516ft 105kts
07-Aug-18 08:03 35.089559 -120.020542 284 6534ft 101kts
07-Aug-18 08:04 35.095789 -120.054314 284 6536ft 101kts
07-Aug-18 08:05 35.102463 -120.089491 283 6545ft 115kts
07-Aug-18 08:06 35.109692 -120.127502 284 6142ft 137kts
07-Aug-18 08:07 35.117697 -120.170187 280 5676ft 119kts
07-Aug-18 08:08 35.131652 -120.204830 293 5393ft 112kts
07-Aug-18 08:09 35.141187 -120.241507 288 5089ft 113kts
07-Aug-18 08:10 35.149956 -120.277874 288 4877ft 107kts
07-Aug-18 08:11 35.158445 -120.312956 288 4869ft 102kts
07-Aug-18 08:12 35.160912 -120.343791 267 5194ft 90kts
07-Aug-18 08:13 35.160197 -120.378544 267 5527ft 115kts
07-Aug-18 08:14 35.179263 -120.409687 302 5491ft 123kts
07-Aug-18 08:15 35.191151 -120.449191 287 5398ft 125kts
07-Aug-18 08:16 35.200668 -120.489036 288 4784ft 115kts
07-Aug-18 08:17 35.208312 -120.526771 276 3675ft 121kts
07-Aug-18 08:18 35.213499 -120.569810 280 1926ft 117kts
07-Aug-18 08:19 35.217336 -120.605084 289 873ft 100kts
07-Aug-18 08:20 35.227875 -120.624468 306 453ft 57kts
07-Aug-18 08:21 35.235915 -120.638530 309 215ft 28kts
07-Aug-18 08:22 35.237662 -120.639655 111 215ft 7kts
07-Aug-18 08:23 35.238284 -120.638627 271 215ft 0kts
07-Aug-18 08:24 35.238284 -120.638632 271 215ft 0kts
07-Aug-18 08:25 35.238284 -120.638632 271 215ft 0kts

Navigation Log

Ident Type
Flight plan parsing failed, navigation log unavailable